sensor_id;sensor_type;location;lat;lon;timestamp;pressure;altitude;pressure_sealevel;temperature;humidity
50696;BME280;36665;51.786;21.594;2022-12-18T00:07:44;88968.63;;;-7.00;78.99
50696;BME280;36665;51.786;21.594;2022-12-18T00:16:10;88963.89;;;-7.01;78.92
50696;BME280;36665;51.786;21.594;2022-12-18T00:24:35;88949.27;;;-7.05;78.97
50696;BME280;36665;51.786;21.594;2022-12-18T00:32:58;88949.52;;;-7.06;78.96
50696;BME280;36665;51.786;21.594;2022-12-18T00:41:22;88937.42;;;-7.09;78.93
50696;BME280;36665;51.786;21.594;2022-12-18T00:50:05;88950.98;;;-7.04;78.95
50696;BME280;36665;51.786;21.594;2022-12-18T00:58:28;88950.23;;;-7.05;79.02
50696;BME280;36665;51.786;21.594;2022-12-18T01:06:51;88968.57;;;-6.99;79.16
50696;BME280;36665;51.786;21.594;2022-12-18T01:15:14;88991.16;;;-6.93;79.13
50696;BME280;36665;51.786;21.594;2022-12-18T01:23:38;88986.05;;;-6.94;79.01
50696;BME280;36665;51.786;21.594;2022-12-18T01:32:02;88989.42;;;-6.93;78.86
50696;BME280;36665;51.786;21.594;2022-12-18T01:40:25;89002.63;;;-6.89;79.09
50696;BME280;36665;51.786;21.594;2022-12-18T01:48:52;88998.21;;;-6.91;79.15
50696;BME280;36665;51.786;21.594;2022-12-18T01:57:16;89012.63;;;-6.87;79.03
50696;BME280;36665;51.786;21.594;2022-12-18T02:05:46;89038.08;;;-6.81;79.15
50696;BME280;36665;51.786;21.594;2022-12-18T02:32:02;89066.95;;;-6.72;79.30
50696;BME280;36665;51.786;21.594;2022-12-18T02:40:28;89063.42;;;-6.73;79.19
50696;BME280;36665;51.786;21.594;2022-12-18T02:49:03;89082.00;;;-6.69;79.21
50696;BME280;36665;51.786;21.594;2022-12-18T03:06:08;89107.36;;;-6.61;79.28
50696;BME280;36665;51.786;21.594;2022-12-18T03:14:33;89120.88;;;-6.57;79.27
50696;BME280;36665;51.786;21.594;2022-12-18T03:23:03;89132.33;;;-6.53;79.28
50696;BME280;36665;51.786;21.594;2022-12-18T03:31:30;89139.65;;;-6.51;79.21
50696;BME280;36665;51.786;21.594;2022-12-18T03:39:59;89159.98;;;-6.46;79.21
50696;BME280;36665;51.786;21.594;2022-12-18T03:48:31;89194.03;;;-6.37;79.22
50696;BME280;36665;51.786;21.594;2022-12-18T03:57:21;89211.33;;;-6.32;79.29
50696;BME280;36665;51.786;21.594;2022-12-18T04:05:48;89238.00;;;-6.24;79.28
50696;BME280;36665;51.786;21.594;2022-12-18T04:14:14;89249.29;;;-6.21;79.46
50696;BME280;36665;51.786;21.594;2022-12-18T04:22:42;89237.59;;;-6.25;79.21
50696;BME280;36665;51.786;21.594;2022-12-18T04:31:06;89252.08;;;-6.20;79.31
50696;BME280;36665;51.786;21.594;2022-12-18T04:39:30;89286.56;;;-6.10;79.35
50696;BME280;36665;51.786;21.594;2022-12-18T04:47:59;89292.45;;;-6.08;79.58
50696;BME280;36665;51.786;21.594;2022-12-18T04:56:22;89290.20;;;-6.09;79.46
50696;BME280;36665;51.786;21.594;2022-12-18T05:04:45;89289.84;;;-6.08;79.38
50696;BME280;36665;51.786;21.594;2022-12-18T05:13:08;89271.80;;;-6.14;79.47
50696;BME280;36665;51.786;21.594;2022-12-18T05:21:30;89265.32;;;-6.16;79.47
50696;BME280;36665;51.786;21.594;2022-12-18T05:29:53;89283.70;;;-6.11;79.39
50696;BME280;36665;51.786;21.594;2022-12-18T05:38:16;89287.64;;;-6.09;79.38
50696;BME280;36665;51.786;21.594;2022-12-18T05:46:39;89284.33;;;-6.10;79.49
50696;BME280;36665;51.786;21.594;2022-12-18T05:55:02;89313.86;;;-6.02;79.62
50696;BME280;36665;51.786;21.594;2022-12-18T06:03:25;89317.68;;;-6.02;79.51
50696;BME280;36665;51.786;21.594;2022-12-18T06:11:55;89301.85;;;-6.06;79.36
50696;BME280;36665;51.786;21.594;2022-12-18T06:20:18;89304.23;;;-6.06;79.30
50696;BME280;36665;51.786;21.594;2022-12-18T06:28:41;89308.38;;;-6.04;79.34
50696;BME280;36665;51.786;21.594;2022-12-18T06:37:04;89293.05;;;-6.08;79.45
50696;BME280;36665;51.786;21.594;2022-12-18T06:45:27;89295.20;;;-6.08;79.46
50696;BME280;36665;51.786;21.594;2022-12-18T06:53:53;89288.83;;;-6.09;79.60
50696;BME280;36665;51.786;21.594;2022-12-18T07:02:16;89277.73;;;-6.13;79.41
50696;BME280;36665;51.786;21.594;2022-12-18T07:10:42;89269.09;;;-6.15;79.31
50696;BME280;36665;51.786;21.594;2022-12-18T07:19:09;89270.84;;;-6.15;79.53
50696;BME280;36665;51.786;21.594;2022-12-18T07:27:32;89283.61;;;-6.10;79.40
50696;BME280;36665;51.786;21.594;2022-12-18T07:35:55;89283.60;;;-6.11;79.44
50696;BME280;36665;51.786;21.594;2022-12-18T07:44:18;89259.95;;;-6.19;79.25
50696;BME280;36665;51.786;21.594;2022-12-18T07:52:41;89262.41;;;-6.17;79.42
50696;BME280;36665;51.786;21.594;2022-12-18T08:01:06;89296.38;;;-6.07;79.30
50696;BME280;36665;51.786;21.594;2022-12-18T08:09:30;89311.29;;;-6.03;79.29
50696;BME280;36665;51.786;21.594;2022-12-18T08:17:56;89348.54;;;-5.92;79.42
50696;BME280;36665;51.786;21.594;2022-12-18T08:26:20;89393.24;;;-5.80;79.28
50696;BME280;36665;51.786;21.594;2022-12-18T08:34:43;89420.25;;;-5.73;79.36
50696;BME280;36665;51.786;21.594;2022-12-18T08:43:09;89441.63;;;-5.67;79.33
50696;BME280;36665;51.786;21.594;2022-12-18T08:51:55;89436.91;;;-5.67;79.18
50696;BME280;36665;51.786;21.594;2022-12-18T09:00:19;89427.40;;;-5.70;79.15
50696;BME280;36665;51.786;21.594;2022-12-18T09:08:46;89416.10;;;-5.73;79.29
50696;BME280;36665;51.786;21.594;2022-12-18T09:17:09;89479.46;;;-5.55;79.41
50696;BME280;36665;51.786;21.594;2022-12-18T09:25:33;89521.63;;;-5.43;79.47
50696;BME280;36665;51.786;21.594;2022-12-18T09:33:58;89549.35;;;-5.36;79.50
50696;BME280;36665;51.786;21.594;2022-12-18T09:42:21;89553.82;;;-5.33;79.40
50696;BME280;36665;51.786;21.594;2022-12-18T09:50:45;89535.44;;;-5.39;79.50
50696;BME280;36665;51.786;21.594;2022-12-18T09:59:20;89562.57;;;-5.32;79.58
50696;BME280;36665;51.786;21.594;2022-12-18T10:07:55;89556.31;;;-5.35;79.50
50696;BME280;36665;51.786;21.594;2022-12-18T10:33:22;89632.40;;;-5.12;79.53
50696;BME280;36665;51.786;21.594;2022-12-18T10:41:45;89670.45;;;-5.01;79.65
50696;BME280;36665;51.786;21.594;2022-12-18T10:50:38;89717.87;;;-4.88;79.54
50696;BME280;36665;51.786;21.594;2022-12-18T10:59:21;89764.51;;;-4.76;79.33
50696;BME280;36665;51.786;21.594;2022-12-18T11:07:49;89813.25;;;-4.62;79.38
50696;BME280;36665;51.786;21.594;2022-12-18T11:16:19;89845.28;;;-4.52;79.60
50696;BME280;36665;51.786;21.594;2022-12-18T11:43:10;89820.17;;;-4.59;79.58
50696;BME280;36665;51.786;21.594;2022-12-18T12:00:31;89837.03;;;-4.55;79.60
50696;BME280;36665;51.786;21.594;2022-12-18T12:17:40;89827.91;;;-4.57;79.39
50696;BME280;36665;51.786;21.594;2022-12-18T12:26:12;89837.76;;;-4.55;79.49
50696;BME280;36665;51.786;21.594;2022-12-18T12:43:21;89802.13;;;-4.65;79.26
50696;BME280;36665;51.786;21.594;2022-12-18T12:51:49;89778.89;;;-4.72;79.24
50696;BME280;36665;51.786;21.594;2022-12-18T13:00:17;89778.55;;;-4.72;79.18
50696;BME280;36665;51.786;21.594;2022-12-18T13:08:57;89771.22;;;-4.74;79.28
50696;BME280;36665;51.786;21.594;2022-12-18T13:17:27;89716.08;;;-4.89;79.23
50696;BME280;36665;51.786;21.594;2022-12-18T13:34:34;89654.05;;;-5.06;79.22
50696;BME280;36665;51.786;21.594;2022-12-18T13:42:58;89657.73;;;-5.06;79.11
50696;BME280;36665;51.786;21.594;2022-12-18T13:51:49;89652.35;;;-5.07;78.92
50696;BME280;36665;51.786;21.594;2022-12-18T14:08:47;89609.80;;;-5.18;78.96
50696;BME280;36665;51.786;21.594;2022-12-18T14:17:11;89554.08;;;-5.34;78.94
50696;BME280;36665;51.786;21.594;2022-12-18T14:25:34;89510.78;;;-5.46;78.93
50696;BME280;36665;51.786;21.594;2022-12-18T14:33:57;89482.33;;;-5.54;78.97
50696;BME280;36665;51.786;21.594;2022-12-18T14:42:20;89462.54;;;-5.60;78.93
50696;BME280;36665;51.786;21.594;2022-12-18T14:50:44;89442.80;;;-5.66;78.97
50696;BME280;36665;51.786;21.594;2022-12-18T14:59:17;89412.48;;;-5.74;78.91
50696;BME280;36665;51.786;21.594;2022-12-18T15:07:49;89366.77;;;-5.87;78.73
50696;BME280;36665;51.786;21.594;2022-12-18T15:16:12;89356.39;;;-5.91;78.86
50696;BME280;36665;51.786;21.594;2022-12-18T15:24:36;89368.57;;;-5.87;78.88
50696;BME280;36665;51.786;21.594;2022-12-18T15:33:23;89357.67;;;-5.90;78.74
50696;BME280;36665;51.786;21.594;2022-12-18T15:41:49;89339.84;;;-5.95;78.74
50696;BME280;36665;51.786;21.594;2022-12-18T15:50:31;89321.05;;;-6.01;78.59
50696;BME280;36665;51.786;21.594;2022-12-18T15:58:54;89327.64;;;-5.99;78.64
50696;BME280;36665;51.786;21.594;2022-12-18T16:07:16;89342.54;;;-5.95;78.74
50696;BME280;36665;51.786;21.594;2022-12-18T16:15:47;89310.01;;;-6.04;78.39
50696;BME280;36665;51.786;21.594;2022-12-18T16:24:18;89255.98;;;-6.19;78.62
50696;BME280;36665;51.786;21.594;2022-12-18T16:32:42;89269.04;;;-6.16;78.56
50696;BME280;36665;51.786;21.594;2022-12-18T16:41:19;89289.79;;;-6.10;78.57
50696;BME280;36665;51.786;21.594;2022-12-18T16:49:54;89257.71;;;-6.19;78.56
50696;BME280;36665;51.786;21.594;2022-12-18T16:58:17;89224.61;;;-6.29;78.67
50696;BME280;36665;51.786;21.594;2022-12-18T17:06:43;89196.48;;;-6.36;78.57
50696;BME280;36665;51.786;21.594;2022-12-18T17:15:07;89163.70;;;-6.45;78.69
50696;BME280;36665;51.786;21.594;2022-12-18T17:23:30;89167.27;;;-6.43;78.52
50696;BME280;36665;51.786;21.594;2022-12-18T17:31:53;89191.23;;;-6.38;78.48
50696;BME280;36665;51.786;21.594;2022-12-18T17:40:18;89151.55;;;-6.48;78.49
50696;BME280;36665;51.786;21.594;2022-12-18T17:48:41;89150.99;;;-6.49;78.38
50696;BME280;36665;51.786;21.594;2022-12-18T17:57:04;89147.73;;;-6.51;78.49
50696;BME280;36665;51.786;21.594;2022-12-18T18:05:27;89118.79;;;-6.59;78.51
50696;BME280;36665;51.786;21.594;2022-12-18T18:13:50;89089.70;;;-6.66;78.47
50696;BME280;36665;51.786;21.594;2022-12-18T18:22:23;89096.74;;;-6.64;78.40
50696;BME280;36665;51.786;21.594;2022-12-18T18:30:46;89086.94;;;-6.67;78.47
50696;BME280;36665;51.786;21.594;2022-12-18T18:39:10;89063.68;;;-6.73;78.25
50696;BME280;36665;51.786;21.594;2022-12-18T18:47:34;89062.61;;;-6.73;78.29
50696;BME280;36665;51.786;21.594;2022-12-18T18:55:58;89060.98;;;-6.73;78.39
50696;BME280;36665;51.786;21.594;2022-12-18T19:04:42;89047.77;;;-6.78;78.45
50696;BME280;36665;51.786;21.594;2022-12-18T19:13:11;89047.48;;;-6.77;78.34
50696;BME280;36665;51.786;21.594;2022-12-18T19:21:43;89057.71;;;-6.74;78.39
50696;BME280;36665;51.786;21.594;2022-12-18T19:30:07;89037.47;;;-6.80;78.41
50696;BME280;36665;51.786;21.594;2022-12-18T19:38:30;89022.05;;;-6.86;78.41
50696;BME280;36665;51.786;21.594;2022-12-18T19:46:54;89028.69;;;-6.83;78.49
50696;BME280;36665;51.786;21.594;2022-12-18T19:55:17;88988.35;;;-6.94;78.22
50696;BME280;36665;51.786;21.594;2022-12-18T20:03:40;88933.40;;;-7.10;78.21
50696;BME280;36665;51.786;21.594;2022-12-18T20:12:05;88903.54;;;-7.18;78.20
50696;BME280;36665;51.786;21.594;2022-12-18T20:20:28;88901.23;;;-7.19;78.27
50696;BME280;36665;51.786;21.594;2022-12-18T20:28:53;88856.77;;;-7.33;78.35
50696;BME280;36665;51.786;21.594;2022-12-18T20:37:16;88849.64;;;-7.34;78.29
50696;BME280;36665;51.786;21.594;2022-12-18T20:45:41;88859.56;;;-7.32;78.11
50696;BME280;36665;51.786;21.594;2022-12-18T20:54:06;88850.48;;;-7.35;78.20
50696;BME280;36665;51.786;21.594;2022-12-18T21:02:33;88833.80;;;-7.39;78.22
50696;BME280;36665;51.786;21.594;2022-12-18T21:11:14;88834.50;;;-7.39;78.14
50696;BME280;36665;51.786;21.594;2022-12-18T21:19:58;88791.67;;;-7.50;78.18
50696;BME280;36665;51.786;21.594;2022-12-18T21:28:21;88763.62;;;-7.58;78.26
50696;BME280;36665;51.786;21.594;2022-12-18T21:36:45;88714.66;;;-7.72;78.20
50696;BME280;36665;51.786;21.594;2022-12-18T21:45:09;88643.67;;;-7.94;78.06
50696;BME280;36665;51.786;21.594;2022-12-18T21:53:35;88582.27;;;-8.10;77.94
50696;BME280;36665;51.786;21.594;2022-12-18T22:02:04;88573.32;;;-8.11;77.85
50696;BME280;36665;51.786;21.594;2022-12-18T22:10:27;88594.98;;;-8.06;77.85
50696;BME280;36665;51.786;21.594;2022-12-18T22:18:50;88586.20;;;-8.08;77.64
50696;BME280;36665;51.786;21.594;2022-12-18T22:27:13;88614.58;;;-8.00;77.90
50696;BME280;36665;51.786;21.594;2022-12-18T22:35:36;88648.41;;;-7.90;78.06
50696;BME280;36665;51.786;21.594;2022-12-18T22:44:00;88650.28;;;-7.90;77.84
50696;BME280;36665;51.786;21.594;2022-12-18T22:52:23;88657.95;;;-7.89;78.03
50696;BME280;36665;51.786;21.594;2022-12-18T23:00:47;88661.78;;;-7.87;77.84
50696;BME280;36665;51.786;21.594;2022-12-18T23:09:37;88643.06;;;-7.93;78.07
50696;BME280;36665;51.786;21.594;2022-12-18T23:18:00;88660.98;;;-7.87;78.04
50696;BME280;36665;51.786;21.594;2022-12-18T23:26:24;88673.58;;;-7.84;77.97
50696;BME280;36665;51.786;21.594;2022-12-18T23:34:47;88672.87;;;-7.83;77.94
50696;BME280;36665;51.786;21.594;2022-12-18T23:43:10;88693.73;;;-7.78;78.08
50696;BME280;36665;51.786;21.594;2022-12-18T23:51:33;88678.16;;;-7.82;77.98
50696;BME280;36665;51.786;21.594;2022-12-18T23:59:57;88693.27;;;-7.77;78.10
